createdAt,value
2019-04-21T00:00:21.031Z,60.11
2019-04-21T00:01:20.200Z,59.83
2019-04-21T00:02:28.069Z,60.44
2019-04-21T00:03:26.045Z,61.19
2019-04-21T00:04:34.576Z,61.57
2019-04-21T00:05:38.141Z,60.96
2019-04-21T00:06:43.071Z,61.67
2019-04-21T00:07:36.697Z,61.19
2019-04-21T00:08:42.851Z,61.47
2019-04-21T00:09:48.064Z,61.06
2019-04-21T00:10:40.351Z,61.06
2019-04-21T00:11:41.481Z,61.57
2019-04-21T00:12:35.852Z,61.60
2019-04-21T00:13:32.642Z,61.70
2019-04-21T00:14:31.601Z,61.40
2019-04-21T00:15:29.786Z,61.88
2019-04-21T00:16:33.306Z,61.50
2019-04-21T00:17:23.131Z,61.70
2019-04-21T00:18:19.146Z,61.91
2019-04-21T00:19:23.047Z,62.21
2019-04-21T00:20:28.976Z,62.21
2019-04-21T00:21:29.148Z,62.11
2019-04-21T00:22:34.334Z,61.60
2019-04-21T00:23:37.766Z,61.09
2019-04-21T00:24:35.016Z,61.19
2019-04-21T00:25:34.892Z,61.70
2019-04-21T00:26:42.525Z,61.70
2019-04-21T00:27:34.019Z,61.70
2019-04-21T00:29:51.867Z,61.22
2019-04-21T00:30:50.786Z,61.83
2019-04-21T00:31:48.498Z,62.68
2019-04-21T00:32:46.023Z,63.09
2019-04-21T00:33:37.352Z,62.58
2019-04-21T00:34:34.300Z,62.99
2019-04-21T00:35:41.464Z,63.70
2019-04-21T00:36:47.609Z,63.20
2019-04-21T00:37:54.638Z,62.88
2019-04-21T00:39:07.055Z,62.88
2019-04-21T00:40:01.558Z,62.45
2019-04-21T00:40:56.489Z,63.20
2019-04-21T00:41:55.843Z,63.50
2019-04-21T00:42:50.374Z,63.60
2019-04-21T00:43:50.919Z,63.70
2019-04-21T00:44:44.293Z,63.81
2019-04-21T00:45:44.858Z,63.91
2019-04-21T00:46:50.202Z,63.60
2019-04-21T00:47:51.043Z,63.29
2019-04-21T00:48:54.033Z,63.70
2019-04-21T00:49:56.606Z,64.04
2019-04-21T00:51:15.029Z,64.04
2019-04-21T00:52:03.619Z,63.73
2019-04-21T00:53:00.443Z,64.04
2019-04-21T00:55:10.103Z,63.73
2019-04-21T00:56:01.485Z,64.97
2019-04-21T00:56:56.916Z,65.37
2019-04-21T00:57:58.633Z,64.86
2019-04-21T00:58:59.955Z,64.65
2019-04-21T00:59:57.062Z,64.76
2019-04-21T01:00:58.550Z,65.27
2019-04-21T01:01:55.508Z,65.07
2019-04-21T01:02:57.716Z,64.89
2019-04-21T01:03:58.466Z,65.00
2019-04-21T01:05:01.705Z,65.41
2019-04-21T01:06:11.771Z,65.41
2019-04-21T01:06:55.996Z,65.30
2019-04-21T01:07:50.627Z,65.00
2019-04-21T01:08:55.034Z,63.53
2019-04-21T01:09:48.504Z,64.86
2019-04-21T01:10:48.921Z,64.56
2019-04-21T01:11:57.576Z,63.76
2019-04-21T01:12:56.018Z,64.97
2019-04-21T01:13:58.009Z,65.00
2019-04-21T01:14:55.329Z,64.69
2019-04-21T01:15:52.825Z,64.82
2019-04-21T01:16:57.632Z,65.81
2019-04-21T01:17:51.863Z,65.74
2019-04-21T01:18:54.827Z,65.71
2019-04-21T01:19:51.362Z,65.54
2019-04-21T01:20:33.003Z,65.84
2019-04-21T01:21:32.050Z,66.05
2019-04-21T01:22:31.981Z,65.54
2019-04-21T01:23:31.970Z,65.44
2019-04-21T01:24:36.202Z,65.84
2019-04-21T01:25:39.110Z,65.95
2019-04-21T01:26:43.700Z,66.05
2019-04-21T01:27:54.108Z,66.08
2019-04-21T01:28:52.481Z,65.57
2019-04-21T01:29:58.298Z,66.25
2019-04-21T01:30:53.536Z,65.57
2019-04-21T01:31:48.053Z,65.98
2019-04-21T01:32:55.007Z,66.49
2019-04-21T01:33:56.300Z,66.60
2019-04-21T01:34:56.102Z,66.28
2019-04-21T01:35:55.037Z,65.67
2019-04-21T01:36:51.362Z,65.57
2019-04-21T01:38:00.183Z,65.47
2019-04-21T01:38:55.056Z,66.19
2019-04-21T01:39:54.136Z,66.28
2019-04-21T01:40:53.135Z,66.49
2019-04-21T01:41:57.411Z,66.28
2019-04-21T01:42:52.955Z,66.19
2019-04-21T01:43:49.894Z,65.57
2019-04-21T01:44:53.552Z,65.47
2019-04-21T01:45:48.656Z,66.19
2019-04-21T01:46:49.024Z,66.19
2019-04-21T01:47:50.952Z,65.98
2019-04-21T01:48:49.523Z,66.63
2019-04-21T01:49:43.205Z,67.11
2019-04-21T01:50:51.619Z,66.49
2019-04-21T01:52:03.191Z,66.83
2019-04-21T01:52:55.935Z,67.55
2019-04-21T01:53:56.753Z,67.76
2019-04-21T01:54:55.953Z,67.44
2019-04-21T01:55:54.391Z,67.24
2019-04-21T01:56:53.898Z,67.03
2019-04-21T01:57:49.584Z,66.63
2019-04-21T01:58:44.295Z,67.76
2019-04-21T01:59:47.537Z,67.48
2019-04-21T02:00:50.156Z,67.86
2019-04-21T02:01:54.124Z,67.89
2019-04-21T02:02:59.575Z,67.68
2019-04-21T02:04:56.570Z,67.17
2019-04-21T02:06:01.648Z,67.68
2019-04-21T02:07:50.565Z,68.02
2019-04-21T02:08:51.508Z,68.33
2019-04-21T02:09:59.357Z,68.33
2019-04-21T02:10:57.536Z,68.23
2019-04-21T02:11:55.124Z,67.92
2019-04-21T02:12:52.277Z,68.05
2019-04-21T02:14:00.492Z,68.26
2019-04-21T02:14:58.197Z,68.16
2019-04-21T02:15:56.105Z,68.46
2019-04-21T02:16:54.197Z,68.16
2019-04-21T02:17:54.032Z,68.26
2019-04-21T02:18:49.374Z,68.46
2019-04-21T02:19:50.334Z,68.26
2019-04-21T02:20:43.428Z,68.43
2019-04-21T02:21:47.461Z,68.02
2019-04-21T02:23:20.395Z,68.46
2019-04-21T02:23:59.037Z,68.16
2019-04-21T02:24:56.632Z,68.02
2019-04-21T02:25:57.360Z,68.26
2019-04-21T02:26:54.125Z,68.67
2019-04-21T02:27:59.484Z,68.46
2019-04-21T02:28:55.823Z,69.18
2019-04-21T02:29:55.929Z,68.88
2019-04-21T02:32:18.364Z,68.05
2019-04-21T02:33:16.841Z,67.82
2019-04-21T02:34:09.262Z,67.61
2019-04-21T02:36:15.608Z,67.92
2019-04-21T02:37:25.299Z,67.51
2019-04-21T02:38:09.192Z,67.10
2019-04-21T02:40:03.946Z,67.92
2019-04-21T02:40:57.916Z,67.61
2019-04-21T02:42:02.073Z,68.02
2019-04-21T02:43:07.104Z,67.92
2019-04-21T02:44:08.308Z,68.23
2019-04-21T02:45:00.682Z,68.16
2019-04-21T02:46:10.345Z,68.26
2019-04-21T02:47:09.221Z,68.77
2019-04-21T02:48:04.559Z,69.09
2019-04-21T02:49:04.015Z,69.09
2019-04-21T02:50:09.631Z,69.09
2019-04-21T02:51:00.890Z,69.29
2019-04-21T02:52:16.606Z,69.39
2019-04-21T02:53:01.276Z,69.18
2019-04-21T02:54:32.306Z,69.94
2019-04-21T02:55:02.285Z,69.42
2019-04-21T02:56:03.886Z,69.42
2019-04-21T02:59:12.414Z,69.73
2019-04-21T03:00:06.504Z,69.53
2019-04-21T03:01:03.337Z,69.56
2019-04-21T03:02:04.226Z,69.76
2019-04-21T03:04:03.815Z,69.84
2019-04-21T03:05:01.809Z,69.15
2019-04-21T03:06:18.736Z,69.25
2019-04-21T03:07:09.682Z,68.84
2019-04-21T03:08:03.460Z,68.84
2019-04-21T03:09:09.464Z,69.25
2019-04-21T03:10:09.461Z,69.70
2019-04-21T03:11:09.287Z,69.76
2019-04-21T03:13:05.670Z,69.70
2019-04-21T03:14:05.956Z,69.79
2019-04-21T03:15:06.197Z,70.00
2019-04-21T03:16:11.915Z,69.38
2019-04-21T03:17:09.922Z,69.28
2019-04-21T03:18:04.935Z,69.49
2019-04-21T03:20:02.884Z,69.79
2019-04-21T03:21:16.876Z,70.00
2019-04-21T03:22:10.208Z,69.59
2019-04-21T03:23:16.627Z,69.59
2019-04-21T03:23:57.391Z,69.49
2019-04-21T03:26:12.062Z,69.49
2019-04-21T03:29:03.334Z,69.49
2019-04-21T03:36:33.374Z,69.59
2019-04-21T03:37:11.416Z,70.04
2019-04-21T03:38:03.052Z,70.14
2019-04-21T03:39:04.663Z,70.96
2019-04-21T03:40:01.416Z,70.65
2019-04-21T03:41:04.513Z,70.55
2019-04-21T03:42:07.431Z,70.65
2019-04-21T03:43:08.336Z,70.55
2019-04-21T03:44:10.016Z,70.76
2019-04-21T03:45:03.662Z,71.20
2019-04-21T03:46:01.251Z,71.06
2019-04-21T03:47:10.336Z,70.86
2019-04-21T03:48:01.487Z,70.24
2019-04-21T03:51:04.370Z,70.68
2019-04-21T03:52:03.643Z,70.89
2019-04-21T03:53:59.987Z,70.76
2019-04-21T03:55:50.955Z,70.58
2019-04-21T03:57:21.662Z,70.68
2019-04-21T04:00:09.005Z,71.41
2019-04-21T04:03:35.408Z,71.10
2019-04-21T04:05:05.674Z,70.79
2019-04-21T04:06:15.495Z,71.20
2019-04-21T04:07:25.105Z,71.61
2019-04-21T04:08:47.555Z,71.30
2019-04-21T04:09:11.077Z,70.89
2019-04-21T04:10:08.395Z,70.58
2019-04-21T04:11:58.332Z,71.00
2019-04-21T04:13:06.800Z,71.20
2019-04-21T04:14:12.957Z,71.61
2019-04-21T04:15:24.408Z,71.41
2019-04-21T04:17:11.669Z,71.51
2019-04-21T04:18:04.664Z,71.82
2019-04-21T04:21:54.476Z,72.27
2019-04-21T04:22:43.318Z,72.54
2019-04-21T04:26:36.968Z,72.13
2019-04-21T04:27:49.587Z,72.23
2019-04-21T04:28:39.851Z,72.23
2019-04-21T04:29:24.229Z,71.82
2019-04-21T04:30:31.149Z,72.23
2019-04-21T04:31:39.652Z,72.03
2019-04-21T04:32:30.683Z,71.82
2019-04-21T04:33:41.769Z,71.72
2019-04-21T04:34:29.284Z,72.23
2019-04-21T04:35:40.617Z,72.37
2019-04-21T04:37:31.749Z,72.37
2019-04-21T04:38:39.558Z,72.37
2019-04-21T04:40:51.779Z,72.99
2019-04-21T04:41:35.074Z,73.81
2019-04-21T04:43:45.577Z,73.19
2019-04-21T04:44:54.268Z,73.12
2019-04-21T04:46:34.779Z,73.09
2019-04-21T04:47:24.392Z,72.27
2019-04-21T04:48:29.055Z,72.27
2019-04-21T04:49:43.539Z,72.16
2019-04-21T04:51:56.414Z,72.06
2019-04-21T04:52:32.744Z,71.55
2019-04-21T04:53:43.963Z,71.41
2019-04-21T04:54:39.079Z,71.41
2019-04-21T04:55:34.004Z,71.75
2019-04-21T04:56:30.711Z,71.95
2019-04-21T04:57:39.573Z,72.16
2019-04-21T04:58:54.588Z,72.58
2019-04-21T05:00:34.847Z,72.37
2019-04-21T05:01:34.577Z,71.95
2019-04-21T05:03:44.330Z,72.13
2019-04-21T05:04:40.143Z,72.64
2019-04-21T05:05:30.043Z,72.23
2019-04-21T05:07:33.459Z,72.03
2019-04-21T05:08:47.129Z,72.33
2019-04-21T05:10:43.101Z,71.69
2019-04-21T05:11:43.200Z,72.03
2019-04-21T05:13:37.569Z,71.78
2019-04-21T05:15:42.610Z,71.82
2019-04-21T05:18:36.756Z,72.23
2019-04-21T05:20:48.812Z,71.69
2019-04-21T05:22:29.034Z,71.78
2019-04-21T05:23:21.286Z,72.09
2019-04-21T05:24:16.588Z,72.51
2019-04-21T05:25:13.166Z,72.44
2019-04-21T05:26:13.289Z,72.44
2019-04-21T05:27:14.122Z,72.81
2019-04-21T05:28:12.671Z,73.74
2019-04-21T05:29:07.159Z,72.30
2019-04-21T05:30:29.355Z,72.09
2019-04-21T05:31:25.401Z,72.51
2019-04-21T05:32:17.277Z,72.06
2019-04-21T05:33:20.800Z,71.89
2019-04-21T05:34:25.704Z,72.06
2019-04-21T05:35:23.209Z,71.69
2019-04-21T05:36:20.485Z,71.78
2019-04-21T05:37:21.763Z,71.78
2019-04-21T05:38:17.738Z,71.89
2019-04-21T05:39:14.737Z,72.20
2019-04-21T05:40:15.840Z,72.47
2019-04-21T05:41:12.377Z,72.16
2019-04-21T05:42:07.825Z,72.27
2019-04-21T05:43:26.328Z,72.27
2019-04-21T05:44:28.018Z,72.34
2019-04-21T05:45:34.842Z,72.27
2019-04-21T05:46:18.406Z,72.13
2019-04-21T05:47:26.302Z,72.03
2019-04-21T05:48:28.861Z,71.82
2019-04-21T05:49:14.071Z,71.92
2019-04-21T05:50:16.601Z,71.28
2019-04-21T05:52:27.549Z,70.66
2019-04-21T05:53:36.175Z,70.73
2019-04-21T05:54:39.380Z,70.52
2019-04-21T05:55:40.556Z,70.21
2019-04-21T05:56:35.369Z,70.28
2019-04-21T05:58:48.055Z,69.87
2019-04-21T05:59:49.110Z,69.87
2019-04-21T06:01:47.024Z,69.46
2019-04-21T06:02:56.321Z,68.81
2019-04-21T06:03:52.410Z,68.30
2019-04-21T06:05:14.098Z,67.79
2019-04-21T06:06:00.482Z,67.79
2019-04-21T06:06:48.108Z,68.06
2019-04-21T06:07:47.226Z,67.44
2019-04-21T06:08:50.640Z,66.22
2019-04-21T06:09:57.305Z,65.77
2019-04-21T06:10:54.212Z,65.77
2019-04-21T06:11:59.892Z,65.57
2019-04-21T06:12:55.400Z,65.88
2019-04-21T06:13:55.518Z,65.95
2019-04-21T06:14:52.138Z,65.23
2019-04-21T06:15:46.346Z,63.87
2019-04-21T06:16:54.581Z,63.94
2019-04-21T06:17:49.551Z,63.64
2019-04-21T06:18:52.965Z,62.88
2019-04-21T06:19:49.688Z,62.78
2019-04-21T06:20:51.799Z,62.37
2019-04-21T06:21:44.779Z,62.55
2019-04-21T06:22:54.816Z,62.52
2019-04-21T06:23:47.817Z,62.39
2019-04-21T06:25:11.530Z,61.54
2019-04-21T06:26:59.207Z,59.52
2019-04-21T06:27:44.409Z,59.28
2019-04-21T06:29:50.310Z,58.75
2019-04-21T06:30:59.388Z,59.59
2019-04-21T06:32:16.304Z,59.72
2019-04-21T06:32:50.564Z,60.87
2019-04-21T06:35:08.374Z,61.99
2019-04-21T06:36:09.688Z,61.72
2019-04-21T06:36:51.928Z,61.61
2019-04-21T06:37:55.021Z,61.69
2019-04-21T06:40:03.212Z,61.46
2019-04-21T06:40:48.704Z,61.08
2019-04-21T06:41:49.251Z,60.26
2019-04-21T06:42:51.687Z,61.15
2019-04-21T06:43:59.820Z,61.08
2019-04-21T06:44:53.771Z,60.26
2019-04-21T06:45:57.295Z,61.15
2019-04-21T06:46:49.036Z,61.32
2019-04-21T06:47:51.312Z,57.83
2019-04-21T06:48:51.213Z,59.03
2019-04-21T06:50:52.510Z,56.32
2019-04-21T06:51:43.550Z,54.26
2019-04-21T06:52:53.886Z,57.21
2019-04-21T06:53:52.703Z,57.44
2019-04-21T06:54:50.768Z,57.85
2019-04-21T06:55:44.827Z,58.05
2019-04-21T06:56:45.013Z,57.21
2019-04-21T06:57:46.257Z,56.63
2019-04-21T06:58:48.173Z,56.52
2019-04-21T06:59:43.379Z,57.85
2019-04-21T07:00:41.353Z,57.65
2019-04-21T07:02:52.142Z,57.54
2019-04-21T07:03:49.357Z,56.12
2019-04-21T07:04:50.143Z,56.02
2019-04-21T07:05:48.747Z,56.09
2019-04-21T07:06:48.050Z,56.09
2019-04-21T07:07:56.390Z,57.92
2019-04-21T07:08:55.089Z,57.62
2019-04-21T07:09:51.019Z,57.11
2019-04-21T07:10:46.466Z,55.79
2019-04-21T07:11:44.545Z,56.40
2019-04-21T07:12:45.058Z,56.07
2019-04-21T07:13:49.066Z,55.96
2019-04-21T07:14:47.890Z,56.77
2019-04-21T07:15:55.860Z,57.08
2019-04-21T07:16:51.006Z,55.55
2019-04-21T07:17:45.644Z,56.24
2019-04-21T07:18:58.618Z,56.16
2019-04-21T07:19:51.066Z,57.36
2019-04-21T07:20:50.456Z,54.51
2019-04-21T07:21:45.489Z,55.94
2019-04-21T07:22:47.872Z,57.46
2019-04-21T07:23:57.215Z,54.11
2019-04-21T07:24:51.809Z,54.00
2019-04-21T07:25:47.589Z,54.21
2019-04-21T07:26:51.057Z,55.02
2019-04-21T07:27:50.750Z,54.59
2019-04-21T07:28:49.907Z,55.60
2019-04-21T07:29:50.753Z,54.16
2019-04-21T07:30:51.619Z,53.55
2019-04-21T07:31:54.384Z,53.24
2019-04-21T07:32:49.431Z,54.36
2019-04-21T07:34:45.925Z,53.63
2019-04-21T07:35:43.235Z,52.20
2019-04-21T07:36:52.144Z,52.20
2019-04-21T07:37:48.125Z,54.03
2019-04-21T07:38:46.951Z,53.52
2019-04-21T07:39:43.880Z,51.90
2019-04-21T07:40:40.047Z,53.63
2019-04-21T07:41:38.605Z,53.02
2019-04-21T07:42:42.899Z,53.93
2019-04-21T07:43:41.055Z,53.39
2019-04-21T07:44:40.864Z,52.99
2019-04-21T07:45:40.526Z,51.67
2019-04-21T07:46:38.465Z,52.48
2019-04-21T07:47:48.044Z,51.67
2019-04-21T07:48:46.084Z,51.95
2019-04-21T07:49:46.444Z,51.65
2019-04-21T07:50:49.771Z,51.85
2019-04-21T07:51:47.746Z,51.54
2019-04-21T07:52:48.686Z,53.04
2019-04-21T07:53:52.571Z,51.21
2019-04-21T07:55:03.544Z,52.20
2019-04-21T07:56:32.470Z,52.18
2019-04-21T07:57:39.725Z,51.98
2019-04-21T07:58:47.515Z,48.43
2019-04-21T07:59:55.126Z,47.90
2019-04-21T08:00:54.001Z,48.31
2019-04-21T08:01:48.364Z,48.08
2019-04-21T08:03:00.541Z,46.67
2019-04-21T08:03:46.071Z,48.28
2019-04-21T08:04:53.490Z,41.69
2019-04-21T08:05:45.796Z,40.98
2019-04-21T08:06:47.798Z,40.75
2019-04-21T08:08:43.549Z,40.66
2019-04-21T08:09:45.255Z,41.04
2019-04-21T08:10:40.493Z,40.13
2019-04-21T08:11:40.199Z,40.61
2019-04-21T08:12:44.754Z,40.01
2019-04-21T08:13:59.034Z,39.89
2019-04-21T08:14:43.853Z,41.20
2019-04-21T08:15:57.698Z,41.79
2019-04-21T08:16:46.079Z,41.18
2019-04-21T08:17:41.132Z,39.26
2019-04-21T08:18:48.676Z,38.46
2019-04-21T08:19:43.340Z,40.36
2019-04-21T08:20:44.761Z,39.04
2019-04-21T08:21:55.884Z,39.35
2019-04-21T08:22:47.943Z,39.63
2019-04-21T08:23:43.401Z,41.45
2019-04-21T08:24:45.217Z,38.32
2019-04-21T08:25:53.504Z,39.81
2019-04-21T08:26:45.170Z,38.48
2019-04-21T08:27:47.747Z,38.69
2019-04-21T08:28:45.753Z,40.91
2019-04-21T08:29:45.992Z,38.39
2019-04-21T08:30:43.096Z,41.20
2019-04-21T08:31:56.085Z,38.67
2019-04-21T08:32:51.553Z,39.25
2019-04-21T08:33:47.033Z,39.25
2019-04-21T08:34:55.557Z,38.55
2019-04-21T08:36:11.008Z,37.93
2019-04-21T08:36:40.684Z,38.21
2019-04-21T08:37:43.318Z,36.30
2019-04-21T08:38:48.406Z,37.89
2019-04-21T08:40:51.126Z,36.80
2019-04-21T08:42:45.066Z,36.00
2019-04-21T08:43:46.494Z,37.39
2019-04-21T08:44:46.625Z,35.78
2019-04-21T08:45:49.771Z,35.26
2019-04-21T08:46:46.041Z,38.38
2019-04-21T08:47:50.153Z,35.97
2019-04-21T08:48:44.892Z,35.97
2019-04-21T08:49:41.494Z,37.15
2019-04-21T08:50:47.599Z,35.57
2019-04-21T08:51:48.469Z,35.46
2019-04-21T08:52:49.275Z,38.06
2019-04-21T08:53:49.117Z,37.34
2019-04-21T08:54:43.512Z,36.65
2019-04-21T08:55:50.784Z,35.33
2019-04-21T08:56:43.188Z,36.23
2019-04-21T08:57:52.839Z,38.22
2019-04-21T08:59:45.305Z,35.10
2019-04-21T09:00:48.797Z,36.21
2019-04-21T09:01:43.046Z,35.01
2019-04-21T09:02:43.266Z,34.21
2019-04-21T09:03:42.983Z,36.40
2019-04-21T09:04:41.201Z,36.40
2019-04-21T09:06:58.593Z,35.88
2019-04-21T09:07:44.671Z,35.18
2019-04-21T09:08:46.233Z,36.08
2019-04-21T09:09:41.522Z,37.27
2019-04-21T09:10:39.382Z,38.37
2019-04-21T09:11:40.413Z,37.25
2019-04-21T09:12:42.874Z,34.86
2019-04-21T09:13:37.020Z,38.55
2019-04-21T09:14:41.472Z,35.14
2019-04-21T09:15:41.548Z,35.64
2019-04-21T09:16:36.648Z,37.23
2019-04-21T09:17:32.911Z,38.33
2019-04-21T09:18:38.065Z,36.63
2019-04-21T09:19:51.280Z,36.13
2019-04-21T09:20:46.123Z,33.73
2019-04-21T09:21:45.570Z,35.13
2019-04-21T09:22:41.294Z,36.01
2019-04-21T09:23:43.699Z,34.63
2019-04-21T09:24:41.011Z,35.43
2019-04-21T09:25:46.241Z,36.71
2019-04-21T09:26:43.507Z,33.83
2019-04-21T09:27:36.717Z,33.71
2019-04-21T09:28:35.701Z,33.71
2019-04-21T09:29:30.959Z,34.11
2019-04-21T09:30:24.077Z,34.81
2019-04-21T09:31:25.993Z,33.91
2019-04-21T09:32:27.122Z,33.61
2019-04-21T09:33:28.061Z,34.99
2019-04-21T09:34:30.587Z,35.19
2019-04-21T09:35:24.105Z,33.71
2019-04-21T09:36:25.460Z,35.11
2019-04-21T09:37:36.708Z,35.31
2019-04-21T09:38:33.855Z,34.31
2019-04-21T09:39:27.323Z,33.91
2019-04-21T09:40:30.073Z,33.09
2019-04-21T09:41:25.802Z,35.48
2019-04-21T09:42:33.271Z,33.68
2019-04-21T09:43:30.738Z,34.08
2019-04-21T09:44:29.079Z,32.58
2019-04-21T09:45:24.447Z,32.89
2019-04-21T09:46:23.221Z,34.18
2019-04-21T09:47:24.936Z,34.18
2019-04-21T09:48:25.863Z,33.48
2019-04-21T09:49:27.042Z,32.86
2019-04-21T09:50:24.197Z,31.38
2019-04-21T09:51:22.051Z,32.08
2019-04-21T09:52:29.152Z,32.46
2019-04-21T09:53:31.178Z,33.76
2019-04-21T09:54:28.469Z,32.46
2019-04-21T09:55:26.581Z,32.56
2019-04-21T09:56:31.176Z,33.66
2019-04-21T09:57:36.622Z,31.26
2019-04-21T09:58:31.048Z,33.26
2019-04-21T09:59:28.208Z,33.84
2019-04-21T10:00:27.187Z,32.85
2019-04-21T10:01:29.869Z,33.33
2019-04-21T10:02:32.776Z,33.53
2019-04-21T10:03:23.116Z,33.03
2019-04-21T10:04:23.091Z,32.73
2019-04-21T10:05:21.862Z,32.23
2019-04-21T10:06:21.849Z,32.52
2019-04-21T10:07:28.107Z,29.64
2019-04-21T10:08:22.957Z,31.13
2019-04-21T10:09:21.960Z,32.02
2019-04-21T10:10:22.972Z,31.22
2019-04-21T10:11:22.640Z,31.12
2019-04-21T10:12:21.784Z,32.00
2019-04-21T10:13:22.979Z,30.51
2019-04-21T10:14:22.035Z,32.50
2019-04-21T10:15:23.642Z,32.40
2019-04-21T10:16:21.927Z,31.99
2019-04-21T10:17:21.873Z,32.59
2019-04-21T10:18:21.794Z,33.07
2019-04-21T10:19:21.711Z,30.68
2019-04-21T10:20:22.376Z,28.00
2019-04-21T10:21:23.379Z,29.80
2019-04-21T10:22:23.119Z,30.49
2019-04-21T10:23:21.673Z,29.90
2019-04-21T10:24:22.198Z,29.51
2019-04-21T10:25:22.767Z,30.01
2019-04-21T10:26:22.217Z,30.61
2019-04-21T10:27:21.662Z,31.10
2019-04-21T10:28:21.604Z,30.79
2019-04-21T10:29:25.513Z,30.48
2019-04-21T10:30:22.616Z,31.36
2019-04-21T10:31:22.713Z,28.69
2019-04-21T10:32:23.701Z,29.48
2019-04-21T10:33:22.047Z,30.28
2019-04-21T10:34:21.554Z,29.78
2019-04-21T10:35:23.032Z,29.38
2019-04-21T10:36:22.713Z,29.88
2019-04-21T10:37:34.028Z,28.47
2019-04-21T10:38:30.389Z,26.29
2019-04-21T10:39:23.867Z,26.39
2019-04-21T10:40:21.499Z,27.37
2019-04-21T10:41:21.627Z,26.89
2019-04-21T10:42:21.539Z,27.49
2019-04-21T10:43:23.689Z,27.39
2019-04-21T10:44:21.458Z,27.00
2019-04-21T10:45:21.420Z,26.90
2019-04-21T10:46:22.472Z,27.12
2019-04-21T10:47:22.700Z,26.32
2019-04-21T10:48:21.389Z,26.93
2019-04-21T10:49:22.540Z,27.72
2019-04-21T10:50:22.493Z,26.40
2019-04-21T10:51:21.367Z,25.81
2019-04-21T10:52:22.739Z,26.42
2019-04-21T10:53:21.330Z,27.22
2019-04-21T10:54:21.895Z,27.62
2019-04-21T10:56:28.708Z,29.00
2019-04-21T10:57:22.384Z,27.90
2019-04-21T10:58:22.513Z,27.59
2019-04-21T10:59:22.564Z,27.89
2019-04-21T11:00:21.731Z,27.09
2019-04-21T11:01:21.243Z,28.08
2019-04-21T11:02:21.263Z,27.28
2019-04-21T11:03:22.642Z,27.78
2019-04-21T11:04:25.369Z,27.36
2019-04-21T11:05:22.737Z,26.88
2019-04-21T11:06:21.187Z,29.35
2019-04-21T11:07:25.518Z,26.58
2019-04-21T11:08:28.398Z,26.38
2019-04-21T11:09:22.151Z,26.48
2019-04-21T11:10:22.271Z,25.99
2019-04-21T11:11:21.760Z,26.09
2019-04-21T11:12:21.746Z,26.99
2019-04-21T11:13:21.146Z,27.59
2019-04-21T11:14:21.180Z,27.58
2019-04-21T11:15:21.244Z,26.90
2019-04-21T11:16:21.353Z,26.21
2019-04-21T11:17:21.843Z,27.59
2019-04-21T11:18:21.935Z,27.09
2019-04-21T11:19:22.131Z,26.08
2019-04-21T11:20:21.032Z,24.19
2019-04-21T11:21:21.022Z,25.78
2019-04-21T11:22:21.028Z,25.38
2019-04-21T11:23:22.394Z,25.10
2019-04-21T11:24:20.996Z,23.90
2019-04-21T11:25:22.040Z,25.40
2019-04-21T11:26:22.069Z,25.70
2019-04-21T11:27:20.967Z,26.10
2019-04-21T11:28:20.947Z,28.58
2019-04-21T11:29:21.290Z,27.39
2019-04-21T11:30:20.925Z,26.89
2019-04-21T11:31:21.003Z,27.58
2019-04-21T11:32:21.235Z,27.37
2019-04-21T11:33:21.322Z,27.58
2019-04-21T11:34:21.164Z,26.28
2019-04-21T11:35:21.249Z,25.50
2019-04-21T11:36:21.609Z,26.20
2019-04-21T11:37:21.971Z,26.20
2019-04-21T11:38:24.939Z,26.69
2019-04-21T11:39:31.614Z,27.97
2019-04-21T11:40:23.472Z,26.58
2019-04-21T11:41:21.623Z,25.19
2019-04-21T11:42:21.739Z,25.68
2019-04-21T11:43:22.023Z,26.08
2019-04-21T11:44:24.257Z,25.98
2019-04-21T11:45:22.102Z,25.90
2019-04-21T11:46:20.749Z,26.68
2019-04-21T11:47:20.734Z,26.08
2019-04-21T11:48:21.904Z,24.49
2019-04-21T11:49:22.247Z,25.49
2019-04-21T11:50:21.127Z,25.29
2019-04-21T11:51:20.704Z,26.28
2019-04-21T11:52:20.819Z,26.09
2019-04-21T11:53:21.054Z,26.68
2019-04-21T11:54:20.672Z,25.49
2019-04-21T11:55:20.698Z,26.48
2019-04-21T11:56:20.915Z,25.91
2019-04-21T11:57:26.400Z,26.59
2019-04-21T11:58:21.614Z,26.39
2019-04-21T11:59:21.772Z,26.39
2019-04-21T12:00:21.785Z,28.27
2019-04-21T12:01:21.337Z,27.58
2019-04-21T12:02:21.556Z,25.87
2019-04-21T12:03:22.044Z,26.67
2019-04-21T12:04:21.297Z,25.77
2019-04-21T12:05:21.405Z,26.47
2019-04-21T12:06:28.610Z,27.45
2019-04-21T12:07:22.859Z,27.55
2019-04-21T12:08:30.277Z,28.34
2019-04-21T12:09:21.513Z,25.87
2019-04-21T12:10:21.627Z,25.16
2019-04-21T12:11:21.041Z,24.98
2019-04-21T12:12:21.333Z,25.66
2019-04-21T12:13:20.538Z,24.76
2019-04-21T12:14:21.714Z,25.77
2019-04-21T12:15:20.840Z,24.58
2019-04-21T12:16:21.113Z,25.18
2019-04-21T12:17:20.433Z,25.77
2019-04-21T12:18:21.902Z,24.76
2019-04-21T12:19:20.785Z,24.57
2019-04-21T12:20:20.883Z,25.15
2019-04-21T12:21:21.203Z,25.85
2019-04-21T12:22:25.338Z,25.95
2019-04-21T12:23:22.532Z,25.25
2019-04-21T12:24:21.527Z,25.45
2019-04-21T12:25:20.953Z,23.66
2019-04-21T12:26:20.311Z,24.26
2019-04-21T12:27:20.433Z,23.37
2019-04-21T12:28:21.775Z,23.97
2019-04-21T12:29:20.826Z,23.57
2019-04-21T12:30:20.267Z,25.56
2019-04-21T12:31:21.211Z,25.86
2019-04-21T12:32:20.319Z,24.27
2019-04-21T12:33:20.265Z,26.27
2019-04-21T12:34:21.763Z,26.47
2019-04-21T12:35:20.217Z,26.76
2019-04-21T12:36:20.223Z,26.37
2019-04-21T12:37:20.211Z,26.26
2019-04-21T12:38:32.089Z,25.86
2019-04-21T12:39:21.170Z,25.67
2019-04-21T12:40:20.978Z,26.26
2019-04-21T12:41:20.438Z,26.07
2019-04-21T12:42:20.775Z,26.07
2019-04-21T12:43:21.003Z,25.97
2019-04-21T12:44:20.495Z,27.56
2019-04-21T12:45:20.125Z,26.16
2019-04-21T12:46:20.115Z,23.47
2019-04-21T12:47:20.106Z,24.65
2019-04-21T12:48:20.145Z,24.26
2019-04-21T12:49:20.252Z,22.97
2019-04-21T12:50:21.367Z,23.88
2019-04-21T12:51:20.059Z,23.68
2019-04-21T12:52:20.054Z,23.58
2019-04-21T12:53:21.367Z,23.68
2019-04-21T12:54:20.040Z,23.48
2019-04-21T12:55:26.160Z,22.58
2019-04-21T12:56:21.003Z,21.69
2019-04-21T12:57:21.327Z,23.38
2019-04-21T12:58:21.358Z,25.56
2019-04-21T12:59:21.115Z,26.04
2019-04-21T13:00:20.754Z,24.54
2019-04-21T13:01:20.964Z,24.44
2019-04-21T13:02:20.007Z,24.53
2019-04-21T13:03:21.733Z,24.84
2019-04-21T13:04:19.919Z,25.23
2019-04-21T13:06:55.710Z,25.82
2019-04-21T13:07:35.417Z,25.13
2019-04-21T13:08:49.070Z,23.54
2019-04-21T13:09:36.147Z,23.65
2019-04-21T13:10:35.935Z,23.86
2019-04-21T13:11:35.058Z,25.85
2019-04-21T13:12:35.254Z,25.55
2019-04-21T13:13:35.697Z,24.26
2019-04-21T13:14:35.862Z,24.47
2019-04-21T13:15:35.567Z,25.26
2019-04-21T13:16:34.605Z,25.26
2019-04-21T13:17:35.350Z,24.95
2019-04-21T13:18:35.331Z,25.73
2019-04-21T13:19:35.647Z,24.75
2019-04-21T13:21:56.072Z,25.97
2019-04-21T13:24:17.754Z,26.35
2019-04-21T13:25:02.376Z,25.74
2019-04-21T13:26:09.677Z,24.47
2019-04-21T13:27:03.630Z,25.77
2019-04-21T13:28:02.858Z,25.36
2019-04-21T13:29:10.144Z,24.76
2019-04-21T13:30:02.277Z,24.66
2019-04-21T13:31:02.329Z,24.98
2019-04-21T13:32:03.725Z,25.46
2019-04-21T13:33:03.028Z,24.66
2019-04-21T13:34:02.228Z,25.16
2019-04-21T13:35:03.199Z,24.96
2019-04-21T13:36:02.849Z,27.05
2019-04-21T13:37:11.930Z,25.46
2019-04-21T13:38:02.619Z,25.76
2019-04-21T13:39:33.168Z,25.56
2019-04-21T13:40:27.899Z,25.05
2019-04-21T13:41:17.840Z,25.45
2019-04-21T13:44:28.904Z,25.85
2019-04-21T13:45:37.330Z,25.96
2019-04-21T13:46:28.918Z,25.87
2019-04-21T13:47:28.406Z,25.77
2019-04-21T13:48:37.187Z,27.66
2019-04-21T13:49:37.183Z,25.27
2019-04-21T13:50:29.065Z,25.86
2019-04-21T13:51:29.235Z,26.06
2019-04-21T13:52:28.972Z,24.57
2019-04-21T13:53:28.562Z,25.96
2019-04-21T13:54:29.607Z,24.76
2019-04-21T13:55:29.622Z,24.16
2019-04-21T13:56:28.920Z,24.37
2019-04-21T13:57:28.589Z,24.66
2019-04-21T13:58:28.639Z,25.96
2019-04-21T13:59:28.631Z,25.76
2019-04-21T14:00:29.535Z,24.35
2019-04-21T14:01:29.676Z,23.97
2019-04-21T14:02:28.988Z,24.27
2019-04-21T14:03:29.225Z,24.58
2019-04-21T14:04:29.492Z,24.37
2019-04-21T14:05:28.676Z,25.18
2019-04-21T14:06:28.177Z,25.86
2019-04-21T14:07:28.176Z,25.46
2019-04-21T14:08:29.371Z,25.16